sensor_id;sensor_type;location;lat;lon;timestamp;temperature;humidity
34829;DHT22;21042;47.620;12.188;2023-02-22T00:01:33;3.80;99.90
34829;DHT22;21042;47.620;12.188;2023-02-22T00:04:09;3.70;99.90
34829;DHT22;21042;47.620;12.188;2023-02-22T00:06:36;3.60;99.90
34829;DHT22;21042;47.620;12.188;2023-02-22T00:09:03;3.50;99.90
34829;DHT22;21042;47.620;12.188;2023-02-22T00:11:30;3.50;99.90
34829;DHT22;21042;47.620;12.188;2023-02-22T00:13:57;3.40;99.90
34829;DHT22;21042;47.620;12.188;2023-02-22T00:16:25;3.30;99.90
34829;DHT22;21042;47.620;12.188;2023-02-22T00:18:52;3.30;99.90
34829;DHT22;21042;47.620;12.188;2023-02-22T00:21:19;3.20;99.90
34829;DHT22;21042;47.620;12.188;2023-02-22T00:23:47;3.10;99.90
34829;DHT22;21042;47.620;12.188;2023-02-22T00:26:16;3.10;99.90
34829;DHT22;21042;47.620;12.188;2023-02-22T00:28:52;3.10;99.90
34829;DHT22;21042;47.620;12.188;2023-02-22T00:31:20;3.10;99.90
34829;DHT22;21042;47.620;12.188;2023-02-22T00:33:48;3.00;99.90
34829;DHT22;21042;47.620;12.188;2023-02-22T00:36:16;3.00;99.90
34829;DHT22;21042;47.620;12.188;2023-02-22T00:38:42;3.00;99.90
34829;DHT22;21042;47.620;12.188;2023-02-22T00:41:10;3.00;99.90
34829;DHT22;21042;47.620;12.188;2023-02-22T00:43:37;3.00;99.90
34829;DHT22;21042;47.620;12.188;2023-02-22T00:46:04;2.90;99.90
34829;DHT22;21042;47.620;12.188;2023-02-22T00:48:31;2.90;99.90
34829;DHT22;21042;47.620;12.188;2023-02-22T00:50:57;2.90;99.90
34829;DHT22;21042;47.620;12.188;2023-02-22T00:53:25;3.00;99.90
34829;DHT22;21042;47.620;12.188;2023-02-22T00:55:51;3.00;99.90
34829;DHT22;21042;47.620;12.188;2023-02-22T00:58:18;3.10;99.90
34829;DHT22;21042;47.620;12.188;2023-02-22T01:00:45;3.10;99.90
34829;DHT22;21042;47.620;12.188;2023-02-22T01:03:15;3.10;99.90
34829;DHT22;21042;47.620;12.188;2023-02-22T01:05:43;3.00;99.90
34829;DHT22;21042;47.620;12.188;2023-02-22T01:08:12;3.20;99.90
34829;DHT22;21042;47.620;12.188;2023-02-22T01:10:39;3.10;99.90
34829;DHT22;21042;47.620;12.188;2023-02-22T01:13:07;3.10;99.90
34829;DHT22;21042;47.620;12.188;2023-02-22T01:15:37;3.10;99.90
34829;DHT22;21042;47.620;12.188;2023-02-22T01:18:04;3.00;99.90
34829;DHT22;21042;47.620;12.188;2023-02-22T01:20:32;2.90;99.90
34829;DHT22;21042;47.620;12.188;2023-02-22T01:22:59;2.80;99.90
34829;DHT22;21042;47.620;12.188;2023-02-22T01:25:29;2.80;99.90
34829;DHT22;21042;47.620;12.188;2023-02-22T01:27:58;2.70;99.90
34829;DHT22;21042;47.620;12.188;2023-02-22T01:30:31;2.60;99.90
34829;DHT22;21042;47.620;12.188;2023-02-22T01:32:59;2.50;99.90
34829;DHT22;21042;47.620;12.188;2023-02-22T01:35:29;2.40;99.90
34829;DHT22;21042;47.620;12.188;2023-02-22T01:37:56;2.40;99.90
34829;DHT22;21042;47.620;12.188;2023-02-22T01:40:32;2.40;99.90
34829;DHT22;21042;47.620;12.188;2023-02-22T01:43:03;2.30;99.90
34829;DHT22;21042;47.620;12.188;2023-02-22T01:50:43;2.40;99.90
34829;DHT22;21042;47.620;12.188;2023-02-22T01:53:13;2.40;99.90
34829;DHT22;21042;47.620;12.188;2023-02-22T01:55:41;2.50;99.90
34829;DHT22;21042;47.620;12.188;2023-02-22T01:58:09;2.50;99.90
34829;DHT22;21042;47.620;12.188;2023-02-22T02:00:36;2.50;99.90
34829;DHT22;21042;47.620;12.188;2023-02-22T02:03:20;2.50;99.90
34829;DHT22;21042;47.620;12.188;2023-02-22T02:05:49;2.50;99.90
34829;DHT22;21042;47.620;12.188;2023-02-22T02:08:36;2.40;99.90
34829;DHT22;21042;47.620;12.188;2023-02-22T02:11:07;2.40;99.90
34829;DHT22;21042;47.620;12.188;2023-02-22T02:13:35;2.40;99.90
34829;DHT22;21042;47.620;12.188;2023-02-22T02:16:02;2.50;99.90
34829;DHT22;21042;47.620;12.188;2023-02-22T02:18:29;2.50;99.90
34829;DHT22;21042;47.620;12.188;2023-02-22T02:24:23;2.40;99.90
34829;DHT22;21042;47.620;12.188;2023-02-22T02:27:19;2.40;99.90
34829;DHT22;21042;47.620;12.188;2023-02-22T02:30:23;2.40;99.90
34829;DHT22;21042;47.620;12.188;2023-02-22T02:33:00;2.30;99.90
34829;DHT22;21042;47.620;12.188;2023-02-22T02:39:07;2.20;99.90
34829;DHT22;21042;47.620;12.188;2023-02-22T02:41:42;2.20;99.90
34829;DHT22;21042;47.620;12.188;2023-02-22T02:44:14;2.20;99.90
34829;DHT22;21042;47.620;12.188;2023-02-22T02:46:50;2.20;99.90
34829;DHT22;21042;47.620;12.188;2023-02-22T02:52:05;2.20;99.90
34829;DHT22;21042;47.620;12.188;2023-02-22T02:54:33;2.20;99.90
34829;DHT22;21042;47.620;12.188;2023-02-22T02:57:03;2.20;99.90
34829;DHT22;21042;47.620;12.188;2023-02-22T02:59:33;2.20;99.90
34829;DHT22;21042;47.620;12.188;2023-02-22T03:05:13;2.20;99.90
34829;DHT22;21042;47.620;12.188;2023-02-22T03:13:45;2.40;99.90
34829;DHT22;21042;47.620;12.188;2023-02-22T03:16:21;2.30;99.90
34829;DHT22;21042;47.620;12.188;2023-02-22T03:19:07;2.30;99.90
34829;DHT22;21042;47.620;12.188;2023-02-22T03:21:48;2.20;99.90
34829;DHT22;21042;47.620;12.188;2023-02-22T03:24:24;2.10;99.90
34829;DHT22;21042;47.620;12.188;2023-02-22T03:27:03;2.10;99.90
34829;DHT22;21042;47.620;12.188;2023-02-22T03:29:43;2.00;99.90
34829;DHT22;21042;47.620;12.188;2023-02-22T03:32:17;2.00;99.90
34829;DHT22;21042;47.620;12.188;2023-02-22T03:34:52;2.00;99.90
34829;DHT22;21042;47.620;12.188;2023-02-22T03:37:28;1.90;99.90
34829;DHT22;21042;47.620;12.188;2023-02-22T03:39:59;1.90;99.90
34829;DHT22;21042;47.620;12.188;2023-02-22T03:42:31;1.80;99.90
34829;DHT22;21042;47.620;12.188;2023-02-22T03:45:03;1.70;99.90
34829;DHT22;21042;47.620;12.188;2023-02-22T03:47:37;1.70;99.90
34829;DHT22;21042;47.620;12.188;2023-02-22T03:50:13;1.60;99.90
34829;DHT22;21042;47.620;12.188;2023-02-22T03:52:43;1.60;99.90
34829;DHT22;21042;47.620;12.188;2023-02-22T03:55:16;1.70;99.90
34829;DHT22;21042;47.620;12.188;2023-02-22T03:57:47;1.80;99.90
34829;DHT22;21042;47.620;12.188;2023-02-22T04:00:19;1.80;99.90
34829;DHT22;21042;47.620;12.188;2023-02-22T04:02:49;1.90;99.90
34829;DHT22;21042;47.620;12.188;2023-02-22T04:05:19;1.90;99.90
34829;DHT22;21042;47.620;12.188;2023-02-22T04:07:46;1.90;99.90
34829;DHT22;21042;47.620;12.188;2023-02-22T04:10:15;1.80;99.90
34829;DHT22;21042;47.620;12.188;2023-02-22T04:12:43;1.80;99.90
34829;DHT22;21042;47.620;12.188;2023-02-22T04:15:12;1.80;99.90
34829;DHT22;21042;47.620;12.188;2023-02-22T04:17:41;1.80;99.90
34829;DHT22;21042;47.620;12.188;2023-02-22T04:20:12;1.80;99.90
34829;DHT22;21042;47.620;12.188;2023-02-22T04:22:46;1.80;99.90
34829;DHT22;21042;47.620;12.188;2023-02-22T04:25:14;1.80;99.90
34829;DHT22;21042;47.620;12.188;2023-02-22T04:27:41;1.70;99.90
34829;DHT22;21042;47.620;12.188;2023-02-22T04:30:09;1.80;99.90
34829;DHT22;21042;47.620;12.188;2023-02-22T04:32:38;1.80;99.90
34829;DHT22;21042;47.620;12.188;2023-02-22T04:35:06;1.80;99.90
34829;DHT22;21042;47.620;12.188;2023-02-22T04:37:33;1.80;99.90
34829;DHT22;21042;47.620;12.188;2023-02-22T04:40:05;1.80;99.90
34829;DHT22;21042;47.620;12.188;2023-02-22T04:42:35;1.80;99.90
34829;DHT22;21042;47.620;12.188;2023-02-22T04:45:02;1.80;99.90
34829;DHT22;21042;47.620;12.188;2023-02-22T04:47:30;1.80;99.90
34829;DHT22;21042;47.620;12.188;2023-02-22T04:49:57;1.80;99.90
34829;DHT22;21042;47.620;12.188;2023-02-22T04:52:26;1.70;99.90
34829;DHT22;21042;47.620;12.188;2023-02-22T04:54:53;1.70;99.90
34829;DHT22;21042;47.620;12.188;2023-02-22T04:57:20;1.70;99.90
34829;DHT22;21042;47.620;12.188;2023-02-22T04:59:48;1.70;99.90
34829;DHT22;21042;47.620;12.188;2023-02-22T05:02:17;1.70;99.90
34829;DHT22;21042;47.620;12.188;2023-02-22T05:04:44;1.60;99.90
34829;DHT22;21042;47.620;12.188;2023-02-22T05:07:11;1.70;99.90
34829;DHT22;21042;47.620;12.188;2023-02-22T05:09:37;1.70;99.90
34829;DHT22;21042;47.620;12.188;2023-02-22T05:12:04;1.70;99.90
34829;DHT22;21042;47.620;12.188;2023-02-22T05:14:31;1.70;99.90
34829;DHT22;21042;47.620;12.188;2023-02-22T05:16:59;1.70;99.90
34829;DHT22;21042;47.620;12.188;2023-02-22T05:19:26;1.70;99.90
34829;DHT22;21042;47.620;12.188;2023-02-22T05:21:52;1.70;99.90
34829;DHT22;21042;47.620;12.188;2023-02-22T05:24:19;1.70;99.90
34829;DHT22;21042;47.620;12.188;2023-02-22T05:26:46;1.60;99.90
34829;DHT22;21042;47.620;12.188;2023-02-22T05:29:13;1.50;99.90
34829;DHT22;21042;47.620;12.188;2023-02-22T05:31:40;1.40;99.90
34829;DHT22;21042;47.620;12.188;2023-02-22T05:34:07;1.40;99.90
34829;DHT22;21042;47.620;12.188;2023-02-22T05:36:34;1.30;99.90
34829;DHT22;21042;47.620;12.188;2023-02-22T05:39:01;1.40;99.90
34829;DHT22;21042;47.620;12.188;2023-02-22T05:41:28;1.40;99.90
34829;DHT22;21042;47.620;12.188;2023-02-22T05:43:54;1.40;99.90
34829;DHT22;21042;47.620;12.188;2023-02-22T05:46:21;1.40;99.90
34829;DHT22;21042;47.620;12.188;2023-02-22T05:48:48;1.40;99.90
34829;DHT22;21042;47.620;12.188;2023-02-22T05:51:15;1.40;99.90
34829;DHT22;21042;47.620;12.188;2023-02-22T05:53:42;1.40;99.90
34829;DHT22;21042;47.620;12.188;2023-02-22T05:56:08;1.40;99.90
34829;DHT22;21042;47.620;12.188;2023-02-22T05:58:35;1.40;99.90
34829;DHT22;21042;47.620;12.188;2023-02-22T06:01:02;1.40;99.90
34829;DHT22;21042;47.620;12.188;2023-02-22T06:03:29;1.40;99.90
34829;DHT22;21042;47.620;12.188;2023-02-22T06:05:55;1.40;99.90
34829;DHT22;21042;47.620;12.188;2023-02-22T06:08:23;1.30;99.90
34829;DHT22;21042;47.620;12.188;2023-02-22T06:10:50;1.40;99.90
34829;DHT22;21042;47.620;12.188;2023-02-22T06:13:16;1.40;99.90
34829;DHT22;21042;47.620;12.188;2023-02-22T06:15:43;1.40;99.90
34829;DHT22;21042;47.620;12.188;2023-02-22T06:18:10;1.40;99.90
34829;DHT22;21042;47.620;12.188;2023-02-22T06:20:37;1.50;99.90
34829;DHT22;21042;47.620;12.188;2023-02-22T06:23:03;1.50;99.90
34829;DHT22;21042;47.620;12.188;2023-02-22T06:25:30;1.60;99.90
34829;DHT22;21042;47.620;12.188;2023-02-22T06:27:58;1.70;99.90
34829;DHT22;21042;47.620;12.188;2023-02-22T06:30:27;1.70;99.90
34829;DHT22;21042;47.620;12.188;2023-02-22T06:32:54;1.80;99.90
34829;DHT22;21042;47.620;12.188;2023-02-22T06:35:21;1.80;99.90
34829;DHT22;21042;47.620;12.188;2023-02-22T06:37:48;1.80;99.90
34829;DHT22;21042;47.620;12.188;2023-02-22T06:40:15;1.90;99.90
34829;DHT22;21042;47.620;12.188;2023-02-22T06:42:42;1.90;99.90
34829;DHT22;21042;47.620;12.188;2023-02-22T06:45:09;1.90;99.90
34829;DHT22;21042;47.620;12.188;2023-02-22T06:47:40;1.90;99.90
34829;DHT22;21042;47.620;12.188;2023-02-22T06:50:16;1.90;99.90
34829;DHT22;21042;47.620;12.188;2023-02-22T06:52:43;1.90;99.90
34829;DHT22;21042;47.620;12.188;2023-02-22T06:55:10;1.80;99.90
34829;DHT22;21042;47.620;12.188;2023-02-22T06:57:37;1.80;99.90
34829;DHT22;21042;47.620;12.188;2023-02-22T07:00:04;1.80;99.90
34829;DHT22;21042;47.620;12.188;2023-02-22T07:02:31;1.80;99.90
34829;DHT22;21042;47.620;12.188;2023-02-22T07:04:58;1.80;99.90
34829;DHT22;21042;47.620;12.188;2023-02-22T07:07:25;1.80;99.90
34829;DHT22;21042;47.620;12.188;2023-02-22T07:09:52;1.80;99.90
34829;DHT22;21042;47.620;12.188;2023-02-22T07:12:19;1.80;99.90
34829;DHT22;21042;47.620;12.188;2023-02-22T07:14:45;1.90;99.90
34829;DHT22;21042;47.620;12.188;2023-02-22T07:17:12;1.90;99.90
34829;DHT22;21042;47.620;12.188;2023-02-22T07:19:39;2.00;99.90
34829;DHT22;21042;47.620;12.188;2023-02-22T07:22:05;1.90;99.90
34829;DHT22;21042;47.620;12.188;2023-02-22T07:24:32;1.90;99.90
34829;DHT22;21042;47.620;12.188;2023-02-22T07:27:01;2.00;99.90
34829;DHT22;21042;47.620;12.188;2023-02-22T07:29:28;2.00;99.90
34829;DHT22;21042;47.620;12.188;2023-02-22T07:31:55;2.00;99.90
34829;DHT22;21042;47.620;12.188;2023-02-22T07:34:23;2.10;99.90
34829;DHT22;21042;47.620;12.188;2023-02-22T07:36:50;2.20;99.90
34829;DHT22;21042;47.620;12.188;2023-02-22T07:39:16;2.40;99.90
34829;DHT22;21042;47.620;12.188;2023-02-22T07:41:43;2.60;99.90
34829;DHT22;21042;47.620;12.188;2023-02-22T07:44:22;2.80;99.90
34829;DHT22;21042;47.620;12.188;2023-02-22T07:46:49;3.00;99.90
34829;DHT22;21042;47.620;12.188;2023-02-22T07:49:16;3.10;99.90
34829;DHT22;21042;47.620;12.188;2023-02-22T07:51:43;3.20;99.90
34829;DHT22;21042;47.620;12.188;2023-02-22T07:54:09;3.40;99.90
34829;DHT22;21042;47.620;12.188;2023-02-22T07:56:36;3.40;99.90
34829;DHT22;21042;47.620;12.188;2023-02-22T07:59:03;3.50;99.90
34829;DHT22;21042;47.620;12.188;2023-02-22T08:01:30;3.60;99.90
34829;DHT22;21042;47.620;12.188;2023-02-22T08:03:57;3.60;99.90
34829;DHT22;21042;47.620;12.188;2023-02-22T08:06:24;3.70;99.90
34829;DHT22;21042;47.620;12.188;2023-02-22T08:08:51;3.80;99.90
34829;DHT22;21042;47.620;12.188;2023-02-22T08:11:18;3.90;99.90
34829;DHT22;21042;47.620;12.188;2023-02-22T08:13:45;3.90;99.90
34829;DHT22;21042;47.620;12.188;2023-02-22T08:16:11;4.00;99.90
34829;DHT22;21042;47.620;12.188;2023-02-22T08:18:39;3.90;99.90
34829;DHT22;21042;47.620;12.188;2023-02-22T08:21:06;4.00;99.90
34829;DHT22;21042;47.620;12.188;2023-02-22T08:23:33;4.00;99.90
34829;DHT22;21042;47.620;12.188;2023-02-22T08:26:08;4.10;99.90
34829;DHT22;21042;47.620;12.188;2023-02-22T08:28:35;4.30;99.90
34829;DHT22;21042;47.620;12.188;2023-02-22T08:31:01;4.30;99.90
34829;DHT22;21042;47.620;12.188;2023-02-22T08:33:28;4.40;99.90
34829;DHT22;21042;47.620;12.188;2023-02-22T08:35:55;4.50;99.90
34829;DHT22;21042;47.620;12.188;2023-02-22T08:38:30;4.50;99.90
34829;DHT22;21042;47.620;12.188;2023-02-22T08:40:57;4.60;99.90
34829;DHT22;21042;47.620;12.188;2023-02-22T08:43:24;4.80;99.90
34829;DHT22;21042;47.620;12.188;2023-02-22T08:45:51;4.80;99.90
34829;DHT22;21042;47.620;12.188;2023-02-22T08:48:19;4.90;99.90
34829;DHT22;21042;47.620;12.188;2023-02-22T08:50:46;5.00;99.90
34829;DHT22;21042;47.620;12.188;2023-02-22T08:53:13;5.10;99.90
34829;DHT22;21042;47.620;12.188;2023-02-22T08:55:40;5.20;99.90
34829;DHT22;21042;47.620;12.188;2023-02-22T08:58:08;5.20;99.90
34829;DHT22;21042;47.620;12.188;2023-02-22T09:00:35;5.30;99.90
34829;DHT22;21042;47.620;12.188;2023-02-22T09:03:09;5.30;99.90
34829;DHT22;21042;47.620;12.188;2023-02-22T09:05:39;5.40;99.90
34829;DHT22;21042;47.620;12.188;2023-02-22T09:08:06;5.50;99.90
34829;DHT22;21042;47.620;12.188;2023-02-22T09:10:33;5.70;99.90
34829;DHT22;21042;47.620;12.188;2023-02-22T09:13:00;5.80;99.90
34829;DHT22;21042;47.620;12.188;2023-02-22T09:15:28;5.90;99.90
34829;DHT22;21042;47.620;12.188;2023-02-22T09:17:55;6.00;99.90
34829;DHT22;21042;47.620;12.188;2023-02-22T09:20:23;6.20;99.90
34829;DHT22;21042;47.620;12.188;2023-02-22T09:22:51;6.30;99.90
34829;DHT22;21042;47.620;12.188;2023-02-22T09:25:21;6.40;99.90
34829;DHT22;21042;47.620;12.188;2023-02-22T09:27:50;6.50;99.90
34829;DHT22;21042;47.620;12.188;2023-02-22T09:30:23;6.50;99.90
34829;DHT22;21042;47.620;12.188;2023-02-22T09:32:53;6.70;99.90
34829;DHT22;21042;47.620;12.188;2023-02-22T09:35:20;6.90;99.90
34829;DHT22;21042;47.620;12.188;2023-02-22T09:37:56;7.10;99.90
34829;DHT22;21042;47.620;12.188;2023-02-22T09:40:25;7.40;99.90
34829;DHT22;21042;47.620;12.188;2023-02-22T09:43:23;7.50;99.90
34829;DHT22;21042;47.620;12.188;2023-02-22T09:48:33;7.60;99.90
34829;DHT22;21042;47.620;12.188;2023-02-22T09:51:07;7.60;99.90
34829;DHT22;21042;47.620;12.188;2023-02-22T09:53:44;7.70;99.90
34829;DHT22;21042;47.620;12.188;2023-02-22T09:56:13;7.80;99.90
34829;DHT22;21042;47.620;12.188;2023-02-22T09:58:44;7.90;99.90
34829;DHT22;21042;47.620;12.188;2023-02-22T10:04:00;8.20;99.90
34829;DHT22;21042;47.620;12.188;2023-02-22T10:06:29;8.30;99.90
34829;DHT22;21042;47.620;12.188;2023-02-22T10:09:00;8.20;99.90
34829;DHT22;21042;47.620;12.188;2023-02-22T10:11:54;8.30;99.90
34829;DHT22;21042;47.620;12.188;2023-02-22T10:14:45;8.50;99.90
34829;DHT22;21042;47.620;12.188;2023-02-22T10:17:32;8.50;99.90
34829;DHT22;21042;47.620;12.188;2023-02-22T10:20:17;8.60;99.90
34829;DHT22;21042;47.620;12.188;2023-02-22T10:23:01;8.80;99.90
34829;DHT22;21042;47.620;12.188;2023-02-22T10:25:34;8.90;99.90
34829;DHT22;21042;47.620;12.188;2023-02-22T10:31:04;9.10;99.90
34829;DHT22;21042;47.620;12.188;2023-02-22T10:33:38;9.30;99.90
34829;DHT22;21042;47.620;12.188;2023-02-22T10:36:16;9.40;99.90
34829;DHT22;21042;47.620;12.188;2023-02-22T10:39:27;9.50;99.90
34829;DHT22;21042;47.620;12.188;2023-02-22T10:41:55;9.50;99.70
34829;DHT22;21042;47.620;12.188;2023-02-22T10:44:23;9.60;99.70
34829;DHT22;21042;47.620;12.188;2023-02-22T10:46:51;9.80;99.40
34829;DHT22;21042;47.620;12.188;2023-02-22T10:49:21;9.90;98.30
34829;DHT22;21042;47.620;12.188;2023-02-22T10:52:00;10.00;98.60
34829;DHT22;21042;47.620;12.188;2023-02-22T10:54:27;10.10;98.30
34829;DHT22;21042;47.620;12.188;2023-02-22T10:56:56;10.10;97.40
34829;DHT22;21042;47.620;12.188;2023-02-22T10:59:35;10.20;97.00
34829;DHT22;21042;47.620;12.188;2023-02-22T11:02:23;10.20;96.30
34829;DHT22;21042;47.620;12.188;2023-02-22T11:04:55;10.30;96.20
34829;DHT22;21042;47.620;12.188;2023-02-22T11:07:32;10.40;95.80
34829;DHT22;21042;47.620;12.188;2023-02-22T11:10:07;10.50;95.90
34829;DHT22;21042;47.620;12.188;2023-02-22T11:12:40;10.60;94.70
34829;DHT22;21042;47.620;12.188;2023-02-22T11:17:46;10.80;94.90
34829;DHT22;21042;47.620;12.188;2023-02-22T11:22:56;11.00;95.20
34829;DHT22;21042;47.620;12.188;2023-02-22T11:25:32;11.10;94.10
34829;DHT22;21042;47.620;12.188;2023-02-22T11:28:16;11.10;93.60
34829;DHT22;21042;47.620;12.188;2023-02-22T11:30:48;11.20;93.10
34829;DHT22;21042;47.620;12.188;2023-02-22T11:35:59;11.50;93.00
34829;DHT22;21042;47.620;12.188;2023-02-22T11:38:33;11.70;93.00
34829;DHT22;21042;47.620;12.188;2023-02-22T11:41:06;11.80;92.40
34829;DHT22;21042;47.620;12.188;2023-02-22T11:43:35;11.80;92.60
34829;DHT22;21042;47.620;12.188;2023-02-22T11:46:10;12.00;92.60
34829;DHT22;21042;47.620;12.188;2023-02-22T11:48:41;12.10;92.00
34829;DHT22;21042;47.620;12.188;2023-02-22T11:51:19;12.20;91.10
34829;DHT22;21042;47.620;12.188;2023-02-22T11:59:44;12.60;90.30
34829;DHT22;21042;47.620;12.188;2023-02-22T12:07:36;12.90;90.70
34829;DHT22;21042;47.620;12.188;2023-02-22T12:13:02;13.00;89.20
34829;DHT22;21042;47.620;12.188;2023-02-22T12:15:43;13.10;89.30
34829;DHT22;21042;47.620;12.188;2023-02-22T12:18:23;13.30;89.20
34829;DHT22;21042;47.620;12.188;2023-02-22T12:20:54;13.40;88.40
34829;DHT22;21042;47.620;12.188;2023-02-22T12:26:02;13.40;87.80
34829;DHT22;21042;47.620;12.188;2023-02-22T12:28:33;13.50;86.20
34829;DHT22;21042;47.620;12.188;2023-02-22T12:36:49;14.10;84.10
34829;DHT22;21042;47.620;12.188;2023-02-22T12:40:02;14.20;82.40
34829;DHT22;21042;47.620;12.188;2023-02-22T12:42:55;14.30;82.40
34829;DHT22;21042;47.620;12.188;2023-02-22T12:45:49;14.20;80.00
34829;DHT22;21042;47.620;12.188;2023-02-22T12:50:57;14.30;77.70
34829;DHT22;21042;47.620;12.188;2023-02-22T12:53:29;14.30;77.50
34829;DHT22;21042;47.620;12.188;2023-02-22T12:58:50;14.30;77.30
34829;DHT22;21042;47.620;12.188;2023-02-22T13:01:26;14.40;77.80
34829;DHT22;21042;47.620;12.188;2023-02-22T13:03:55;14.40;77.10
34829;DHT22;21042;47.620;12.188;2023-02-22T13:17:26;14.10;80.00
34829;DHT22;21042;47.620;12.188;2023-02-22T13:22:27;14.10;78.80
34829;DHT22;21042;47.620;12.188;2023-02-22T13:27:50;14.10;79.60
34829;DHT22;21042;47.620;12.188;2023-02-22T13:47:21;14.20;78.00
34829;DHT22;21042;47.620;12.188;2023-02-22T13:50:22;14.30;77.80
34829;DHT22;21042;47.620;12.188;2023-02-22T13:52:53;14.40;77.80
34829;DHT22;21042;47.620;12.188;2023-02-22T13:55:25;14.40;77.70
34829;DHT22;21042;47.620;12.188;2023-02-22T13:58:02;14.40;79.20
34829;DHT22;21042;47.620;12.188;2023-02-22T14:00:54;14.40;80.40
34829;DHT22;21042;47.620;12.188;2023-02-22T14:03:32;14.40;81.80
34829;DHT22;21042;47.620;12.188;2023-02-22T14:06:04;14.40;83.40
34829;DHT22;21042;47.620;12.188;2023-02-22T14:16:26;14.40;81.90
34829;DHT22;21042;47.620;12.188;2023-02-22T14:19:04;14.40;82.40
34829;DHT22;21042;47.620;12.188;2023-02-22T14:21:33;14.30;81.60
34829;DHT22;21042;47.620;12.188;2023-02-22T14:24:14;14.30;83.40
34829;DHT22;21042;47.620;12.188;2023-02-22T14:27:00;14.20;82.90
34829;DHT22;21042;47.620;12.188;2023-02-22T14:29:29;14.30;83.20
34829;DHT22;21042;47.620;12.188;2023-02-22T14:32:05;14.40;83.10
34829;DHT22;21042;47.620;12.188;2023-02-22T14:34:42;14.40;82.60
34829;DHT22;21042;47.620;12.188;2023-02-22T14:37:25;14.50;84.20
34829;DHT22;21042;47.620;12.188;2023-02-22T14:40:05;14.60;82.50
34829;DHT22;21042;47.620;12.188;2023-02-22T14:42:43;14.60;82.70
34829;DHT22;21042;47.620;12.188;2023-02-22T14:45:28;14.60;83.20
34829;DHT22;21042;47.620;12.188;2023-02-22T14:48:30;14.50;83.60
34829;DHT22;21042;47.620;12.188;2023-02-22T14:51:16;14.50;82.90
34829;DHT22;21042;47.620;12.188;2023-02-22T14:53:53;14.30;84.40
34829;DHT22;21042;47.620;12.188;2023-02-22T14:56:32;14.10;83.70
34829;DHT22;21042;47.620;12.188;2023-02-22T14:59:10;14.00;85.90
34829;DHT22;21042;47.620;12.188;2023-02-22T15:01:40;13.80;86.20
34829;DHT22;21042;47.620;12.188;2023-02-22T15:04:28;13.70;87.50
34829;DHT22;21042;47.620;12.188;2023-02-22T15:06:58;13.50;88.10
34829;DHT22;21042;47.620;12.188;2023-02-22T15:09:27;13.40;87.80
34829;DHT22;21042;47.620;12.188;2023-02-22T15:14:34;13.30;88.10
34829;DHT22;21042;47.620;12.188;2023-02-22T15:17:12;13.20;87.90
34829;DHT22;21042;47.620;12.188;2023-02-22T15:19:41;13.10;88.90
34829;DHT22;21042;47.620;12.188;2023-02-22T15:24:55;12.90;89.50
34829;DHT22;21042;47.620;12.188;2023-02-22T15:27:24;12.90;89.90
34829;DHT22;21042;47.620;12.188;2023-02-22T15:29:57;12.90;89.60
34829;DHT22;21042;47.620;12.188;2023-02-22T15:32:30;12.90;89.70
34829;DHT22;21042;47.620;12.188;2023-02-22T15:35:28;12.90;90.00
34829;DHT22;21042;47.620;12.188;2023-02-22T15:38:15;12.80;90.20
34829;DHT22;21042;47.620;12.188;2023-02-22T15:40:43;12.80;89.60
34829;DHT22;21042;47.620;12.188;2023-02-22T15:43:20;12.80;90.30
34829;DHT22;21042;47.620;12.188;2023-02-22T15:45:51;12.80;90.30
34829;DHT22;21042;47.620;12.188;2023-02-22T15:48:17;12.80;90.10
34829;DHT22;21042;47.620;12.188;2023-02-22T15:51:06;12.80;90.40
34829;DHT22;21042;47.620;12.188;2023-02-22T15:53:45;12.70;90.80
34829;DHT22;21042;47.620;12.188;2023-02-22T15:56:23;12.60;90.90
34829;DHT22;21042;47.620;12.188;2023-02-22T15:58:51;12.60;91.20
34829;DHT22;21042;47.620;12.188;2023-02-22T16:01:24;12.60;90.90
34829;DHT22;21042;47.620;12.188;2023-02-22T16:03:54;12.70;91.20
34829;DHT22;21042;47.620;12.188;2023-02-22T16:06:25;12.70;91.20
34829;DHT22;21042;47.620;12.188;2023-02-22T16:08:55;12.60;91.40
34829;DHT22;21042;47.620;12.188;2023-02-22T16:11:40;12.50;91.60
34829;DHT22;21042;47.620;12.188;2023-02-22T16:14:30;12.40;92.20
34829;DHT22;21042;47.620;12.188;2023-02-22T16:17:12;12.30;92.10
34829;DHT22;21042;47.620;12.188;2023-02-22T16:19:40;12.20;92.40
34829;DHT22;21042;47.620;12.188;2023-02-22T16:22:26;12.10;92.50
34829;DHT22;21042;47.620;12.188;2023-02-22T16:24:55;12.00;92.70
34829;DHT22;21042;47.620;12.188;2023-02-22T16:27:41;11.90;92.60
34829;DHT22;21042;47.620;12.188;2023-02-22T16:32:51;11.80;92.70
34829;DHT22;21042;47.620;12.188;2023-02-22T16:35:18;11.70;93.10
34829;DHT22;21042;47.620;12.188;2023-02-22T16:37:50;11.60;93.30
34829;DHT22;21042;47.620;12.188;2023-02-22T16:40:33;11.50;93.20
34829;DHT22;21042;47.620;12.188;2023-02-22T16:43:08;11.40;93.30
34829;DHT22;21042;47.620;12.188;2023-02-22T16:45:37;11.40;94.10
34829;DHT22;21042;47.620;12.188;2023-02-22T16:48:24;11.20;94.60
34829;DHT22;21042;47.620;12.188;2023-02-22T16:50:53;11.00;95.80
34829;DHT22;21042;47.620;12.188;2023-02-22T16:53:23;10.80;95.60
34829;DHT22;21042;47.620;12.188;2023-02-22T16:55:51;10.70;96.40
34829;DHT22;21042;47.620;12.188;2023-02-22T16:58:23;10.60;97.30
34829;DHT22;21042;47.620;12.188;2023-02-22T17:00:54;10.50;98.10
34829;DHT22;21042;47.620;12.188;2023-02-22T17:03:23;10.30;99.20
34829;DHT22;21042;47.620;12.188;2023-02-22T17:05:50;10.00;99.70
34829;DHT22;21042;47.620;12.188;2023-02-22T17:08:17;9.90;99.90
34829;DHT22;21042;47.620;12.188;2023-02-22T17:10:44;9.90;99.90
34829;DHT22;21042;47.620;12.188;2023-02-22T17:13:22;9.80;99.90
34829;DHT22;21042;47.620;12.188;2023-02-22T17:15:52;9.80;99.90
34829;DHT22;21042;47.620;12.188;2023-02-22T17:18:25;9.80;99.90
34829;DHT22;21042;47.620;12.188;2023-02-22T17:20:54;9.80;99.90
34829;DHT22;21042;47.620;12.188;2023-02-22T17:23:22;9.70;99.90
34829;DHT22;21042;47.620;12.188;2023-02-22T17:25:52;9.70;99.90
34829;DHT22;21042;47.620;12.188;2023-02-22T17:28:20;9.80;99.90
34829;DHT22;21042;47.620;12.188;2023-02-22T17:30:47;9.80;99.90
34829;DHT22;21042;47.620;12.188;2023-02-22T17:33:19;9.80;99.90
34829;DHT22;21042;47.620;12.188;2023-02-22T17:35:47;9.70;99.90
34829;DHT22;21042;47.620;12.188;2023-02-22T17:38:14;9.70;99.90
34829;DHT22;21042;47.620;12.188;2023-02-22T17:40:45;9.70;99.90
34829;DHT22;21042;47.620;12.188;2023-02-22T17:43:18;9.70;99.90
34829;DHT22;21042;47.620;12.188;2023-02-22T17:45:45;9.60;99.90
34829;DHT22;21042;47.620;12.188;2023-02-22T17:48:12;9.60;99.90
34829;DHT22;21042;47.620;12.188;2023-02-22T17:50:41;9.50;99.90
34829;DHT22;21042;47.620;12.188;2023-02-22T17:53:08;9.40;99.90